createdAt,value
2019-03-20T00:00:57.077Z,9.88
2019-03-20T00:03:25.301Z,9.28
2019-03-20T00:05:53.844Z,10.48
2019-03-20T00:08:22.320Z,9.08
2019-03-20T00:10:50.542Z,12.20
2019-03-20T00:13:18.766Z,8.95
2019-03-20T00:15:46.967Z,9.30
2019-03-20T00:18:15.528Z,8.05
2019-03-20T00:20:43.761Z,10.55
2019-03-20T00:23:12.263Z,9.08
2019-03-20T00:25:40.477Z,10.70
2019-03-20T00:28:09.040Z,8.08
2019-03-20T00:30:37.239Z,7.97
2019-03-20T00:33:05.448Z,6.45
2019-03-20T00:35:33.646Z,8.45
2019-03-20T00:38:01.868Z,7.55
2019-03-20T00:40:30.145Z,7.05
2019-03-20T00:42:58.699Z,8.08
2019-03-20T00:45:27.177Z,7.40
2019-03-20T00:47:55.669Z,7.20
2019-03-20T00:50:23.867Z,7.47
2019-03-20T00:52:52.081Z,6.50
2019-03-20T00:55:20.941Z,7.08
2019-03-20T00:57:49.149Z,7.35
2019-03-20T01:00:24.069Z,5.78
2019-03-20T01:02:52.291Z,7.33
2019-03-20T01:05:21.488Z,6.20
2019-03-20T01:07:49.697Z,6.35
2019-03-20T01:10:24.432Z,7.92
2019-03-20T01:12:52.662Z,4.80
2019-03-20T01:15:20.863Z,9.20
2019-03-20T01:17:49.148Z,6.42
2019-03-20T01:20:24.298Z,9.83
2019-03-20T01:22:52.513Z,5.45
2019-03-20T01:25:20.719Z,6.08
2019-03-20T01:27:48.991Z,6.90
2019-03-20T01:30:37.143Z,4.37
2019-03-20T01:33:10.705Z,4.35
2019-03-20T01:35:38.915Z,4.92
2019-03-20T01:38:07.878Z,4.92
2019-03-20T01:40:36.066Z,6.20
2019-03-20T01:43:04.674Z,5.80
2019-03-20T01:45:32.881Z,4.85
2019-03-20T01:48:01.095Z,4.87
2019-03-20T01:50:29.298Z,5.50
2019-03-20T01:52:57.840Z,4.95
2019-03-20T01:55:26.038Z,4.65
2019-03-20T01:57:54.599Z,5.12
2019-03-20T02:00:22.811Z,4.55
2019-03-20T02:02:51.018Z,5.05
2019-03-20T02:05:19.231Z,5.42
2019-03-20T02:07:47.690Z,4.95
2019-03-20T02:10:17.278Z,4.55
2019-03-20T02:12:45.480Z,4.20
2019-03-20T02:15:17.411Z,5.53
2019-03-20T02:20:15.711Z,5.12
2019-03-20T02:22:43.912Z,4.75
2019-03-20T02:25:12.660Z,3.77
2019-03-20T02:27:40.860Z,4.08
2019-03-20T02:30:19.813Z,4.03
2019-03-20T02:32:48.040Z,4.87
2019-03-20T02:35:16.254Z,4.17
2019-03-20T02:37:44.438Z,4.60
2019-03-20T02:40:13.688Z,3.80
2019-03-20T02:42:41.895Z,3.25
2019-03-20T02:45:15.444Z,5.60
2019-03-20T02:47:43.650Z,5.17
2019-03-20T02:50:13.075Z,4.85
2019-03-20T02:52:41.304Z,3.75
2019-03-20T02:55:10.435Z,2.90
2019-03-20T02:57:38.641Z,3.62
2019-03-20T03:00:15.706Z,3.35
2019-03-20T03:02:43.893Z,3.70
2019-03-20T03:05:12.437Z,2.75
2019-03-20T03:07:40.933Z,3.80
2019-03-20T03:10:14.680Z,2.17
2019-03-20T03:12:43.214Z,3.20
2019-03-20T03:15:13.452Z,3.33
2019-03-20T03:17:41.744Z,4.42
2019-03-20T03:20:15.380Z,2.67
2019-03-20T03:22:43.711Z,3.05
2019-03-20T03:25:12.933Z,3.95
2019-03-20T03:27:41.142Z,3.30
2019-03-20T03:30:14.030Z,3.25
2019-03-20T03:32:42.254Z,3.87
2019-03-20T03:35:15.973Z,4.87
2019-03-20T03:37:40.376Z,4.12
2019-03-20T03:40:11.663Z,4.42
2019-03-20T03:42:40.167Z,3.40
2019-03-20T03:45:11.924Z,3.55
2019-03-20T03:47:41.730Z,5.28
2019-03-20T03:50:10.832Z,3.30
2019-03-20T03:52:39.292Z,3.85
2019-03-20T03:55:11.380Z,3.87
2019-03-20T03:57:39.739Z,4.80
2019-03-20T04:00:18.729Z,2.87
2019-03-20T04:02:46.934Z,5.05
2019-03-20T04:05:15.154Z,2.60
2019-03-20T04:07:43.341Z,2.98
2019-03-20T04:10:12.890Z,4.80
2019-03-20T04:12:41.081Z,3.67
2019-03-20T04:15:16.876Z,3.10
2019-03-20T04:17:45.078Z,4.15
2019-03-20T04:20:18.203Z,4.53
2019-03-20T04:22:46.400Z,4.37
2019-03-20T04:25:14.615Z,4.17
2019-03-20T04:27:42.808Z,4.28
2019-03-20T04:30:14.021Z,4.55
2019-03-20T04:32:42.531Z,6.17
2019-03-20T04:35:10.855Z,3.65
2019-03-20T04:37:39.078Z,4.78
2019-03-20T04:40:12.399Z,3.77
2019-03-20T04:42:40.599Z,4.65
2019-03-20T04:45:15.581Z,4.37
2019-03-20T04:47:44.315Z,3.55
2019-03-20T04:50:13.566Z,4.25
2019-03-20T04:52:41.814Z,4.62
2019-03-20T04:55:10.010Z,3.08
2019-03-20T04:57:38.169Z,3.10
2019-03-20T05:00:12.184Z,3.37
2019-03-20T05:02:40.390Z,3.60
2019-03-20T05:05:08.589Z,4.08
2019-03-20T05:07:37.127Z,3.10
2019-03-20T05:10:08.884Z,3.60
2019-03-20T05:12:37.082Z,4.67
2019-03-20T05:15:07.761Z,4.05
2019-03-20T05:17:35.959Z,4.67
2019-03-20T05:20:06.466Z,4.30
2019-03-20T05:22:34.673Z,4.78
2019-03-20T05:25:02.871Z,4.15
2019-03-20T05:27:31.073Z,4.12
2019-03-20T05:29:59.289Z,4.92
2019-03-20T05:32:27.497Z,9.28
2019-03-20T05:34:55.951Z,11.03
2019-03-20T05:37:24.154Z,11.75
2019-03-20T05:39:52.359Z,13.08
2019-03-20T05:42:20.570Z,15.60
2019-03-20T05:44:48.795Z,12.03
2019-03-20T05:47:16.982Z,11.30
2019-03-20T05:49:45.424Z,13.10
2019-03-20T05:52:13.626Z,14.00
2019-03-20T05:54:41.826Z,13.72
2019-03-20T05:57:12.433Z,14.15
2019-03-20T05:59:39.954Z,13.60
2019-03-20T06:02:08.157Z,14.15
2019-03-20T06:04:36.359Z,14.10
2019-03-20T06:07:04.568Z,15.20
2019-03-20T06:09:32.861Z,14.50
2019-03-20T06:12:01.417Z,15.08
2019-03-20T06:14:30.103Z,16.55
2019-03-20T06:16:58.582Z,19.12
2019-03-20T06:19:26.784Z,18.32
2019-03-20T06:21:54.994Z,18.35
2019-03-20T06:24:23.515Z,17.07
2019-03-20T06:26:51.724Z,23.47
2019-03-20T06:29:20.324Z,28.47
2019-03-20T06:31:48.498Z,53.70
2019-03-20T06:34:17.041Z,54.55
2019-03-20T06:36:45.254Z,46.08
2019-03-20T06:39:13.460Z,51.02
2019-03-20T06:41:41.688Z,46.60
2019-03-20T06:44:09.895Z,43.10
2019-03-20T06:46:38.108Z,38.42
2019-03-20T06:49:07.975Z,40.88
2019-03-20T06:51:36.301Z,38.75
2019-03-20T06:54:04.797Z,35.63
2019-03-20T06:56:33.017Z,35.78
2019-03-20T06:59:24.129Z,36.98
2019-03-20T07:01:52.664Z,35.55
2019-03-20T07:04:24.377Z,34.90
2019-03-20T07:06:58.576Z,37.35
2019-03-20T07:09:57.832Z,29.42
2019-03-20T07:12:26.051Z,30.00
2019-03-20T07:14:54.304Z,26.87
2019-03-20T07:17:22.868Z,28.52
2019-03-20T07:19:51.392Z,27.02
2019-03-20T07:22:19.611Z,28.12
2019-03-20T07:24:47.814Z,25.40
2019-03-20T07:27:16.026Z,25.62
2019-03-20T07:29:44.233Z,24.00
2019-03-20T07:32:12.441Z,24.43
2019-03-20T07:34:41.003Z,23.20
2019-03-20T07:37:09.595Z,22.00
2019-03-20T07:39:38.066Z,22.73
2019-03-20T07:42:06.652Z,21.30
2019-03-20T07:44:35.129Z,20.97
2019-03-20T07:47:03.336Z,28.57
2019-03-20T07:49:31.540Z,31.73
2019-03-20T07:51:59.748Z,32.50
2019-03-20T07:54:28.337Z,29.98
2019-03-20T07:56:56.547Z,26.97
2019-03-20T07:59:24.832Z,26.05
2019-03-20T08:01:53.090Z,26.87
2019-03-20T08:04:21.262Z,23.38
2019-03-20T08:06:49.487Z,24.87
2019-03-20T08:09:17.737Z,21.87
2019-03-20T08:11:46.096Z,20.02
2019-03-20T08:14:14.323Z,23.83
2019-03-20T08:16:42.531Z,16.85
2019-03-20T08:19:10.753Z,22.48
2019-03-20T08:21:39.271Z,20.80
2019-03-20T08:24:07.861Z,19.77
2019-03-20T08:26:36.333Z,18.73
2019-03-20T08:29:04.813Z,17.82
2019-03-20T08:31:33.301Z,21.70
2019-03-20T08:34:01.881Z,15.35
2019-03-20T08:36:30.088Z,19.57
2019-03-20T08:38:58.310Z,16.37
2019-03-20T08:41:26.532Z,19.55
2019-03-20T08:43:54.751Z,16.20
2019-03-20T08:46:22.956Z,17.02
2019-03-20T08:48:51.437Z,15.55
2019-03-20T08:51:19.637Z,18.73
2019-03-20T08:53:48.188Z,18.40
2019-03-20T08:56:16.398Z,16.57
2019-03-20T08:58:44.612Z,15.13
2019-03-20T09:01:12.817Z,17.95
2019-03-20T09:03:41.036Z,14.13
2019-03-20T09:06:09.244Z,17.45
2019-03-20T09:08:37.719Z,16.10
2019-03-20T09:11:05.920Z,15.10
2019-03-20T09:13:34.391Z,14.68
2019-03-20T09:16:02.600Z,12.80
2019-03-20T09:18:31.151Z,13.20
2019-03-20T09:20:59.358Z,12.80
2019-03-20T09:23:27.580Z,13.32
2019-03-20T09:25:56.030Z,12.30
2019-03-20T09:28:24.564Z,14.15
2019-03-20T09:30:52.766Z,16.50
2019-03-20T09:33:20.996Z,12.53
2019-03-20T09:35:49.194Z,13.62
2019-03-20T09:38:17.416Z,14.83
2019-03-20T09:40:45.624Z,12.78
2019-03-20T09:43:14.222Z,11.97
2019-03-20T09:45:42.704Z,16.05
2019-03-20T09:48:10.909Z,15.38
2019-03-20T09:50:39.121Z,14.50
2019-03-20T09:53:07.370Z,15.20
2019-03-20T09:55:35.904Z,14.65
2019-03-20T09:58:11.420Z,15.53
2019-03-20T10:00:34.371Z,14.47
2019-03-20T10:03:02.896Z,15.72
2019-03-20T10:05:31.092Z,13.85
2019-03-20T10:07:59.299Z,14.78
2019-03-20T10:10:31.704Z,11.97
2019-03-20T10:13:00.202Z,14.75
2019-03-20T10:15:29.059Z,14.68
2019-03-20T10:17:57.562Z,11.25
2019-03-20T10:20:25.780Z,13.95
2019-03-20T10:22:53.986Z,12.10
2019-03-20T10:25:22.502Z,11.95
2019-03-20T10:27:52.017Z,12.18
2019-03-20T10:30:29.867Z,11.45
2019-03-20T10:32:58.446Z,11.15
2019-03-20T10:35:26.959Z,11.57
2019-03-20T10:37:55.168Z,11.48
2019-03-20T10:40:24.132Z,12.90
2019-03-20T10:42:52.602Z,12.18
2019-03-20T10:45:21.191Z,9.53
2019-03-20T10:47:52.752Z,10.70
2019-03-20T10:50:24.051Z,9.63
2019-03-20T10:52:52.282Z,10.72
2019-03-20T10:55:20.472Z,11.33
2019-03-20T10:57:48.750Z,8.65
2019-03-20T11:00:22.542Z,9.45
2019-03-20T11:02:50.722Z,9.68
2019-03-20T11:05:19.584Z,9.03
2019-03-20T11:07:47.788Z,11.15
2019-03-20T11:10:19.262Z,9.18
2019-03-20T11:12:47.508Z,9.83
2019-03-20T11:15:17.472Z,7.95
2019-03-20T11:17:45.662Z,8.80
2019-03-20T11:20:17.942Z,8.93
2019-03-20T11:22:46.153Z,7.55
2019-03-20T11:25:21.926Z,6.58
2019-03-20T11:27:50.454Z,8.10
2019-03-20T11:30:27.119Z,7.70
2019-03-20T11:32:55.324Z,8.60
2019-03-20T11:35:23.890Z,6.80
2019-03-20T11:37:52.085Z,7.45
2019-03-20T11:40:31.942Z,6.83
2019-03-20T11:43:00.153Z,8.73
2019-03-20T11:45:28.352Z,6.12
2019-03-20T11:47:56.555Z,7.17
2019-03-20T11:50:27.663Z,7.25
2019-03-20T11:52:56.270Z,6.87
2019-03-20T11:55:24.484Z,7.08
2019-03-20T11:57:52.677Z,5.28
2019-03-20T12:00:22.243Z,6.92
2019-03-20T12:02:50.440Z,6.95
2019-03-20T12:05:18.665Z,6.33
2019-03-20T12:07:46.864Z,6.33
2019-03-20T12:10:31.466Z,5.72
2019-03-20T12:12:59.659Z,6.85
2019-03-20T12:15:27.864Z,4.95
2019-03-20T12:17:56.074Z,5.95
2019-03-20T12:20:24.913Z,4.75
2019-03-20T12:22:53.115Z,4.40
2019-03-20T12:25:32.780Z,5.37
2019-03-20T12:28:01.303Z,4.45
2019-03-20T12:30:33.675Z,4.45
2019-03-20T12:33:02.192Z,4.58
2019-03-20T12:35:41.317Z,5.50
2019-03-20T12:38:14.640Z,6.80
2019-03-20T12:40:39.450Z,5.40
2019-03-20T12:43:07.962Z,4.97
2019-03-20T12:45:39.398Z,5.72
2019-03-20T12:48:09.082Z,4.55
2019-03-20T12:50:37.318Z,4.87
2019-03-20T12:53:07.963Z,4.60
2019-03-20T12:55:36.173Z,4.75
2019-03-20T12:58:04.679Z,5.03
2019-03-20T13:00:32.879Z,4.70
2019-03-20T13:03:01.084Z,3.58
2019-03-20T13:05:29.284Z,4.95
2019-03-20T13:08:05.340Z,4.80
2019-03-20T13:10:28.305Z,5.72
2019-03-20T13:12:56.798Z,3.90
2019-03-20T13:15:25.763Z,3.22
2019-03-20T13:17:55.005Z,4.47
2019-03-20T13:20:23.198Z,3.83
2019-03-20T13:22:57.614Z,3.67
2019-03-20T13:25:25.819Z,4.25
2019-03-20T13:27:54.324Z,4.33
2019-03-20T13:30:28.849Z,3.60
2019-03-20T13:32:57.067Z,3.40
2019-03-20T13:35:25.271Z,3.47
2019-03-20T13:37:53.488Z,3.17
2019-03-20T13:40:21.687Z,3.40
2019-03-20T13:42:49.908Z,3.75
2019-03-20T13:45:26.081Z,3.47
2019-03-20T13:47:54.297Z,4.12
2019-03-20T13:50:22.940Z,3.12
2019-03-20T13:52:51.163Z,3.75
2019-03-20T13:55:19.368Z,4.05
2019-03-20T13:57:47.871Z,2.77
2019-03-20T14:00:21.046Z,3.77
2019-03-20T14:02:49.627Z,3.12
2019-03-20T14:05:17.867Z,3.45
2019-03-20T14:07:46.079Z,3.50
2019-03-20T14:10:25.131Z,3.45
2019-03-20T14:12:48.789Z,3.35
2019-03-20T14:15:18.035Z,3.17
2019-03-20T14:17:46.584Z,3.35
2019-03-20T14:20:20.624Z,3.83
2019-03-20T14:22:48.839Z,2.92
2019-03-20T14:25:17.047Z,4.28
2019-03-20T14:27:45.251Z,3.20
2019-03-20T14:30:17.069Z,3.33
2019-03-20T14:35:13.083Z,3.22
2019-03-20T14:37:41.543Z,4.60
2019-03-20T14:40:18.752Z,4.45
2019-03-20T14:42:46.956Z,4.28
2019-03-20T14:45:16.007Z,4.03
2019-03-20T14:47:44.391Z,3.33
2019-03-20T14:50:14.939Z,3.08
2019-03-20T14:52:43.424Z,3.92
2019-03-20T14:55:13.623Z,4.55
2019-03-20T14:57:42.131Z,3.40
2019-03-20T15:00:24.746Z,4.87
2019-03-20T15:02:52.962Z,3.00
2019-03-20T15:05:21.169Z,3.80
2019-03-20T15:07:49.401Z,2.00
2019-03-20T15:10:28.155Z,4.15
2019-03-20T15:12:56.689Z,3.72
2019-03-20T15:15:43.523Z,3.98
2019-03-20T15:18:11.735Z,2.77
2019-03-20T15:20:39.942Z,3.20
2019-03-20T15:23:08.159Z,3.67
2019-03-20T15:25:36.364Z,2.58
2019-03-20T15:28:04.571Z,3.00
2019-03-20T15:30:32.778Z,2.27
2019-03-20T15:33:01.009Z,2.65
2019-03-20T15:35:29.216Z,4.40
2019-03-20T15:37:57.423Z,3.50
2019-03-20T15:40:28.593Z,2.95
2019-03-20T15:42:56.792Z,2.47
2019-03-20T15:45:25.003Z,4.15
2019-03-20T15:47:53.559Z,3.20
2019-03-20T15:50:27.088Z,2.90
2019-03-20T15:52:55.315Z,2.70
2019-03-20T15:55:28.853Z,4.25
2019-03-20T15:57:57.485Z,3.55
2019-03-20T16:00:25.695Z,2.85
2019-03-20T16:03:11.521Z,2.92
2019-03-20T16:05:39.718Z,2.83
2019-03-20T16:08:08.201Z,3.65
2019-03-20T16:10:36.403Z,3.45
2019-03-20T16:13:04.996Z,3.72
2019-03-20T16:15:33.230Z,3.27
2019-03-20T16:18:01.431Z,3.65
2019-03-20T16:20:29.988Z,2.85
2019-03-20T16:22:58.246Z,3.75
2019-03-20T16:25:26.400Z,3.10
2019-03-20T16:27:54.598Z,2.98
2019-03-20T16:30:28.983Z,2.37
2019-03-20T16:32:57.510Z,4.03
2019-03-20T16:35:25.733Z,3.00
2019-03-20T16:37:53.935Z,3.67
2019-03-20T16:40:30.386Z,2.75
2019-03-20T16:42:58.605Z,3.40
2019-03-20T16:45:32.999Z,3.02
2019-03-20T16:48:01.199Z,3.20
2019-03-20T16:50:29.688Z,3.92
2019-03-20T16:52:58.158Z,4.17
2019-03-20T16:55:26.362Z,3.87
2019-03-20T16:57:54.558Z,4.10
2019-03-20T17:00:25.447Z,6.30
2019-03-20T17:02:54.023Z,3.47
2019-03-20T17:05:22.915Z,7.78
2019-03-20T17:07:51.127Z,7.25
2019-03-20T17:10:38.786Z,3.17
2019-03-20T17:13:07.307Z,4.78
2019-03-20T17:15:37.817Z,6.03
2019-03-20T17:18:06.755Z,6.72
2019-03-20T17:20:34.964Z,3.00
2019-03-20T17:23:03.179Z,5.95
2019-03-20T17:25:31.392Z,6.45
2019-03-20T17:27:59.594Z,5.15
2019-03-20T17:30:39.667Z,7.55
2019-03-20T17:33:08.161Z,5.58
2019-03-20T17:35:36.351Z,5.42
2019-03-20T17:38:05.132Z,5.45
2019-03-20T17:40:33.346Z,9.45
2019-03-20T17:43:01.552Z,8.48
2019-03-20T17:45:29.802Z,5.97
2019-03-20T17:47:57.991Z,6.25
2019-03-20T17:50:32.862Z,4.08
2019-03-20T17:53:01.107Z,3.98
2019-03-20T17:55:29.311Z,8.43
2019-03-20T17:57:57.884Z,5.55
2019-03-20T18:00:33.958Z,7.85
2019-03-20T18:03:02.185Z,9.88
2019-03-20T18:05:30.359Z,5.60
2019-03-20T18:07:58.867Z,5.22
2019-03-20T18:10:27.087Z,8.18
2019-03-20T18:12:55.299Z,11.00
2019-03-20T18:15:23.521Z,12.80
2019-03-20T18:17:51.723Z,11.40
2019-03-20T18:20:20.676Z,8.90
2019-03-20T18:22:48.882Z,9.55
2019-03-20T18:25:17.104Z,8.13
2019-03-20T18:27:45.307Z,7.65
2019-03-20T18:30:30.908Z,8.88
2019-03-20T18:32:59.102Z,8.75
2019-03-20T18:35:27.322Z,6.97
2019-03-20T18:37:55.531Z,11.90
2019-03-20T18:40:26.223Z,6.42
2019-03-20T18:42:54.425Z,6.67
2019-03-20T18:45:25.999Z,6.78
2019-03-20T18:47:54.530Z,12.60
2019-03-20T18:50:23.280Z,13.58
2019-03-20T18:52:51.719Z,15.05
2019-03-20T18:55:20.198Z,15.10
2019-03-20T18:57:49.249Z,12.60
2019-03-20T19:00:23.101Z,11.68
2019-03-20T19:02:52.948Z,10.82
2019-03-20T19:05:26.644Z,12.65
2019-03-20T19:07:54.849Z,9.55
2019-03-20T19:10:23.345Z,10.28
2019-03-20T19:12:51.938Z,10.08
2019-03-20T19:15:20.138Z,9.95
2019-03-20T19:17:48.348Z,12.80
2019-03-20T19:20:16.541Z,9.78
2019-03-20T19:22:44.866Z,10.30
2019-03-20T19:25:17.611Z,8.95
2019-03-20T19:27:45.827Z,8.13
2019-03-20T19:30:25.069Z,10.43
2019-03-20T19:32:53.277Z,10.45
2019-03-20T19:35:21.905Z,6.50
2019-03-20T19:37:51.358Z,8.13
2019-03-20T19:40:21.035Z,8.18
2019-03-20T19:42:49.311Z,10.48
2019-03-20T19:45:18.359Z,7.92
2019-03-20T19:47:46.708Z,8.08
2019-03-20T19:50:19.126Z,12.33
2019-03-20T19:52:47.335Z,10.55
2019-03-20T19:55:17.421Z,7.92
2019-03-20T19:57:47.340Z,11.05
2019-03-20T20:00:23.924Z,9.65
2019-03-20T20:02:52.163Z,8.75
2019-03-20T20:05:20.652Z,8.13
2019-03-20T20:07:48.913Z,6.53
2019-03-20T20:10:17.953Z,11.30
2019-03-20T20:12:47.770Z,6.90
2019-03-20T20:15:33.110Z,8.08
2019-03-20T20:18:01.374Z,8.55
2019-03-20T20:20:35.259Z,8.53
2019-03-20T20:23:04.520Z,7.53
2019-03-20T20:25:32.971Z,10.05
2019-03-20T20:28:01.449Z,7.10
2019-03-20T20:30:30.527Z,7.17
2019-03-20T20:32:58.749Z,6.10
2019-03-20T20:35:26.996Z,12.43
2019-03-20T20:37:55.465Z,9.65
2019-03-20T20:40:25.434Z,10.32
2019-03-20T20:42:53.635Z,11.60
2019-03-20T20:45:23.418Z,11.60
2019-03-20T20:47:51.954Z,12.60
2019-03-20T20:50:20.433Z,15.72
2019-03-20T20:52:48.908Z,11.18
2019-03-20T20:55:21.394Z,11.97
2019-03-20T20:57:49.609Z,12.10
2019-03-20T21:00:24.737Z,10.30
2019-03-20T21:02:52.956Z,11.28
2019-03-20T21:05:21.165Z,8.88
2019-03-20T21:07:49.376Z,9.95
2019-03-20T21:10:21.900Z,13.70
2019-03-20T21:12:56.265Z,11.78
2019-03-20T21:15:32.520Z,12.45
2019-03-20T21:18:12.820Z,12.23
2019-03-20T21:20:41.026Z,12.23
2019-03-20T21:23:38.446Z,11.83
2019-03-20T21:26:07.718Z,13.43
2019-03-20T21:29:02.053Z,10.48
2019-03-20T21:31:33.525Z,11.10
2019-03-20T21:34:16.791Z,10.50
2019-03-20T21:36:56.834Z,10.40
2019-03-20T21:39:25.363Z,14.28
2019-03-20T21:42:32.272Z,8.83
2019-03-20T21:45:12.318Z,9.63
2019-03-20T21:47:40.632Z,12.13
2019-03-20T21:50:14.903Z,9.33
2019-03-20T21:52:43.496Z,8.40
2019-03-20T21:55:23.786Z,8.00
2019-03-20T21:58:01.003Z,9.15
2019-03-20T22:00:58.214Z,9.25
2019-03-20T22:03:26.456Z,10.82
2019-03-20T22:06:03.744Z,8.30
2019-03-20T22:08:32.227Z,9.03
2019-03-20T22:11:20.458Z,8.75
2019-03-20T22:13:52.076Z,7.40
2019-03-20T22:16:42.894Z,9.10
2019-03-20T22:19:41.410Z,9.88
2019-03-20T22:22:40.425Z,7.92
2019-03-20T22:25:23.559Z,7.90
2019-03-20T22:28:04.089Z,7.55
2019-03-20T22:30:32.304Z,7.60
2019-03-20T22:33:23.337Z,8.85
2019-03-20T22:35:51.953Z,7.60
2019-03-20T22:38:23.451Z,7.00
2019-03-20T22:41:12.522Z,6.67
2019-03-20T22:43:46.788Z,6.15
2019-03-20T22:46:30.285Z,6.80
2019-03-20T22:49:13.608Z,7.35
2019-03-20T22:51:54.262Z,8.43
2019-03-20T22:54:49.352Z,6.72
2019-03-20T22:57:27.998Z,6.37
2019-03-20T22:59:56.200Z,6.45
2019-03-20T23:02:36.677Z,7.95
2019-03-20T23:05:08.432Z,7.37
2019-03-20T23:07:36.943Z,5.97
2019-03-20T23:10:11.185Z,7.05
2019-03-20T23:12:39.383Z,7.12
2019-03-20T23:15:18.535Z,7.30
2019-03-20T23:17:46.741Z,6.45
2019-03-20T23:20:21.192Z,6.53
2019-03-20T23:22:49.563Z,7.08
2019-03-20T23:25:17.766Z,7.20
2019-03-20T23:27:45.974Z,5.97
2019-03-20T23:30:17.475Z,6.90
2019-03-20T23:32:45.694Z,5.70
2019-03-20T23:35:13.902Z,5.22
2019-03-20T23:37:42.110Z,5.87
2019-03-20T23:40:13.154Z,6.97
2019-03-20T23:42:42.490Z,5.57
2019-03-20T23:45:16.448Z,7.08
2019-03-20T23:47:47.912Z,7.03
2019-03-20T23:50:16.130Z,7.33
2019-03-20T23:52:44.334Z,9.25
2019-03-20T23:55:13.383Z,7.78
2019-03-20T23:57:41.593Z,8.45
